Time;durP1;ratioP1;P1;durP2;ratioP2;P2;SDS_P1;SDS_P2;PMS_P1;PMS_P2;Temp;Humidity;BMP_temperature;BMP_pressure;BME280_temperature;BME280_humidity;BME280_pressure;Samples;Min_cycle;Max_cycle;Signal;HPM_P1;HPM_P2
2021/08/26 00:07:50;;;;;;;14.65;3.95;;;;;;;;;;5035091;28;19963;-68
2021/08/26 00:10:17;;;;;;;14.55;3.80;;;;;;;;;;5023606;28;20485;-68
2021/08/26 00:12:43;;;;;;;14.90;3.70;;;;;;;;;;5017929;28;20489;-68
2021/08/26 00:15:10;;;;;;;20.10;4.35;;;;;;;;;;5020929;28;20041;-68
2021/08/26 00:17:36;;;;;;;15.88;3.38;;;;;;;;;;5034744;28;20413;-68
2021/08/26 00:20:03;;;;;;;18.40;4.28;;;;;;;;;;5017356;28;20033;-68
2021/08/26 00:22:29;;;;;;;20.15;4.25;;;;;;;;;;5043182;28;20122;-68
2021/08/26 00:24:55;;;;;;;16.38;3.80;;;;;;;;;;5034727;28;20045;-68
2021/08/26 00:27:23;;;;;;;16.08;4.03;;;;;;;;;;5019355;28;20109;-68
2021/08/26 00:29:49;;;;;;;17.20;3.50;;;;;;;;;;5031507;28;20102;-68
2021/08/26 00:32:15;;;;;;;20.13;3.60;;;;;;;;;;5042288;28;20048;-68
2021/08/26 00:34:42;;;;;;;16.20;3.70;;;;;;;;;;5013447;28;20049;-68
2021/08/26 00:37:08;;;;;;;15.18;4.18;;;;;;;;;;5023419;28;20444;-68
2021/08/26 00:39:34;;;;;;;15.05;3.60;;;;;;;;;;5030577;28;20618;-68
2021/08/26 00:42:00;;;;;;;18.50;4.22;;;;;;;;;;5022883;28;20422;-68
2021/08/26 00:44:26;;;;;;;16.80;3.53;;;;;;;;;;5016261;28;20481;-68
2021/08/26 00:46:52;;;;;;;16.92;3.65;;;;;;;;;;5033704;28;20037;-68
2021/08/26 00:49:18;;;;;;;15.63;4.03;;;;;;;;;;5032707;28;20087;-68
2021/08/26 00:51:45;;;;;;;18.00;4.50;;;;;;;;;;5019020;28;20049;-68
2021/08/26 00:54:12;;;;;;;18.23;4.60;;;;;;;;;;5029356;28;20041;-68
2021/08/26 00:56:38;;;;;;;19.45;4.15;;;;;;;;;;5034960;28;20067;-68
2021/08/26 00:59:05;;;;;;;16.75;3.88;;;;;;;;;;5024387;28;20045;-68
2021/08/26 01:02:00;;;;;;;21.52;5.03;;;;;;;;;;5031606;28;20052;-68
2021/08/26 01:04:42;;;;;;;17.02;4.03;;;;;;;;;;5014189;28;20040;-68
2021/08/26 01:07:14;;;;;;;12.07;3.25;;;;;;;;;;5037990;28;20385;-68
2021/08/26 01:09:45;;;;;;;16.48;4.18;;;;;;;;;;5016235;28;20038;-68
2021/08/26 01:12:14;;;;;;;15.20;4.13;;;;;;;;;;5038811;28;20117;-68
2021/08/26 01:14:41;;;;;;;15.05;3.90;;;;;;;;;;5037123;28;20042;-68
2021/08/26 01:17:07;;;;;;;12.70;3.15;;;;;;;;;;5031096;28;20067;-68
2021/08/26 01:19:33;;;;;;;14.20;4.35;;;;;;;;;;5022290;28;20052;-68
2021/08/26 01:21:59;;;;;;;17.10;3.50;;;;;;;;;;5014282;28;20139;-68
2021/08/26 01:24:28;;;;;;;19.50;3.72;;;;;;;;;;5040536;28;20393;-68
2021/08/26 01:26:56;;;;;;;13.90;3.30;;;;;;;;;;5011806;28;20041;-68
2021/08/26 01:29:22;;;;;;;15.13;3.47;;;;;;;;;;5019420;28;20048;-68
2021/08/26 01:31:48;;;;;;;21.25;3.45;;;;;;;;;;5037452;28;20048;-68
2021/08/26 01:34:15;;;;;;;15.85;3.78;;;;;;;;;;5034657;28;20502;-68
2021/08/26 01:36:42;;;;;;;14.18;3.35;;;;;;;;;;5018934;28;20374;-68
2021/08/26 01:39:09;;;;;;;20.13;3.72;;;;;;;;;;5024987;28;20399;-67
2021/08/26 01:41:54;;;;;;;14.65;3.15;;;;;;;;;;5039549;28;20110;-68
2021/08/26 01:44:25;;;;;;;24.63;3.08;;;;;;;;;;5044494;28;20057;-68
2021/08/26 01:46:52;;;;;;;15.82;3.40;;;;;;;;;;5033443;28;20141;-68
2021/08/26 01:49:18;;;;;;;14.13;3.13;;;;;;;;;;5023513;28;20048;-68
2021/08/26 01:51:44;;;;;;;14.57;3.58;;;;;;;;;;5038115;28;20039;-68
2021/08/26 01:54:10;;;;;;;16.92;2.97;;;;;;;;;;5043735;28;20033;-68
2021/08/26 01:56:38;;;;;;;13.95;3.05;;;;;;;;;;5020520;28;20049;-68
2021/08/26 01:59:04;;;;;;;15.95;3.10;;;;;;;;;;5045665;28;20056;-68
2021/08/26 02:01:30;;;;;;;14.82;2.60;;;;;;;;;;5042295;28;20334;-68
2021/08/26 02:03:56;;;;;;;13.40;2.72;;;;;;;;;;5035203;28;20086;-68
2021/08/26 02:06:22;;;;;;;10.15;1.98;;;;;;;;;;5024182;28;20041;-68
2021/08/26 02:08:48;;;;;;;10.88;2.63;;;;;;;;;;5030308;28;20124;-68
2021/08/26 02:11:15;;;;;;;14.23;3.33;;;;;;;;;;5022139;28;20053;-68
2021/08/26 02:13:41;;;;;;;16.33;2.50;;;;;;;;;;5018891;28;20053;-68
2021/08/26 02:16:07;;;;;;;16.98;2.53;;;;;;;;;;5026179;28;20597;-68
2021/08/26 02:18:33;;;;;;;14.63;2.72;;;;;;;;;;5015701;28;20041;-68
2021/08/26 02:20:59;;;;;;;11.50;2.67;;;;;;;;;;5040180;28;20461;-68
2021/08/26 02:23:26;;;;;;;13.32;2.90;;;;;;;;;;5036884;28;20409;-68
2021/08/26 02:25:52;;;;;;;16.83;3.63;;;;;;;;;;5026546;28;20049;-68
2021/08/26 02:28:18;;;;;;;15.25;2.67;;;;;;;;;;5028234;28;20037;-68
2021/08/26 02:30:44;;;;;;;18.65;2.97;;;;;;;;;;5039571;28;20383;-68
2021/08/26 02:33:10;;;;;;;15.25;2.88;;;;;;;;;;5019801;28;20392;-68
2021/08/26 02:35:36;;;;;;;18.58;2.92;;;;;;;;;;5024641;28;20059;-68
2021/08/26 02:38:02;;;;;;;18.70;3.33;;;;;;;;;;5035448;28;20087;-69
2021/08/26 02:40:29;;;;;;;17.75;2.97;;;;;;;;;;5022415;28;20488;-69
2021/08/26 02:42:55;;;;;;;20.75;3.47;;;;;;;;;;5022878;28;20493;-69
2021/08/26 02:45:21;;;;;;;16.73;2.85;;;;;;;;;;5036284;28;20497;-69
2021/08/26 02:47:48;;;;;;;21.17;2.70;;;;;;;;;;5038465;28;20552;-68
2021/08/26 02:50:14;;;;;;;19.88;3.20;;;;;;;;;;5032888;28;20208;-68
2021/08/26 02:52:40;;;;;;;19.30;2.83;;;;;;;;;;5036363;28;20099;-68
2021/08/26 02:55:06;;;;;;;21.55;3.30;;;;;;;;;;5018962;28;20041;-68
2021/08/26 02:57:32;;;;;;;21.05;3.10;;;;;;;;;;5042104;28;20111;-68
2021/08/26 02:59:58;;;;;;;14.00;2.92;;;;;;;;;;5015523;28;20083;-68
2021/08/26 03:02:24;;;;;;;18.35;2.65;;;;;;;;;;5040358;28;20037;-68
2021/08/26 03:04:50;;;;;;;21.00;4.30;;;;;;;;;;5031694;28;20041;-68
2021/08/26 03:07:16;;;;;;;24.77;3.85;;;;;;;;;;5021561;28;20518;-68
2021/08/26 03:09:42;;;;;;;19.25;3.63;;;;;;;;;;5015776;28;20497;-68
2021/08/26 03:12:09;;;;;;;22.52;3.40;;;;;;;;;;5041649;28;20227;-68
2021/08/26 03:14:35;;;;;;;15.77;3.33;;;;;;;;;;5019320;28;20053;-68
2021/08/26 03:17:01;;;;;;;17.02;3.53;;;;;;;;;;5018425;28;20036;-68
2021/08/26 03:19:27;;;;;;;21.00;3.38;;;;;;;;;;5037733;28;20079;-68
2021/08/26 03:21:53;;;;;;;15.10;3.40;;;;;;;;;;5017054;28;20049;-68
2021/08/26 03:24:19;;;;;;;16.27;2.55;;;;;;;;;;5021245;28;20040;-69
2021/08/26 03:26:45;;;;;;;11.77;2.92;;;;;;;;;;5011689;28;20055;-69
2021/08/26 03:29:11;;;;;;;15.27;2.88;;;;;;;;;;5040573;28;20102;-69
2021/08/26 03:31:37;;;;;;;15.10;2.80;;;;;;;;;;5020434;28;20420;-68
2021/08/26 03:34:03;;;;;;;13.25;2.25;;;;;;;;;;5040054;28;20041;-69
2021/08/26 03:36:29;;;;;;;11.88;2.67;;;;;;;;;;5033900;28;20469;-68
2021/08/26 03:38:56;;;;;;;11.00;2.08;;;;;;;;;;5022935;28;20106;-68
2021/08/26 03:41:22;;;;;;;12.35;2.42;;;;;;;;;;5016023;28;20099;-68
2021/08/26 03:43:52;;;;;;;9.57;1.80;;;;;;;;;;5039554;28;21131;-68
2021/08/26 03:46:18;;;;;;;10.00;1.95;;;;;;;;;;5017569;28;20037;-68
2021/08/26 03:48:44;;;;;;;10.65;1.60;;;;;;;;;;5025660;28;20366;-68
2021/08/26 03:51:10;;;;;;;10.15;1.90;;;;;;;;;;5037046;28;20041;-69
2021/08/26 03:53:36;;;;;;;17.42;2.28;;;;;;;;;;5018591;28;20048;-68
2021/08/26 03:56:05;;;;;;;10.02;1.83;;;;;;;;;;5016117;28;20072;-68
2021/08/26 03:58:31;;;;;;;10.10;1.88;;;;;;;;;;5024443;28;20102;-68
2021/08/26 04:00:57;;;;;;;13.48;2.22;;;;;;;;;;5024537;28;20064;-68
2021/08/26 04:03:23;;;;;;;10.23;2.17;;;;;;;;;;5029786;28;20052;-68
2021/08/26 04:05:49;;;;;;;10.15;2.50;;;;;;;;;;5033316;28;20125;-68
2021/08/26 04:08:15;;;;;;;18.45;3.55;;;;;;;;;;5034179;28;20045;-68
2021/08/26 04:10:41;;;;;;;17.15;4.60;;;;;;;;;;5041470;28;20477;-68
2021/08/26 04:13:08;;;;;;;16.20;4.30;;;;;;;;;;5013360;28;20042;-68
2021/08/26 04:15:34;;;;;;;12.68;3.90;;;;;;;;;;5040995;28;20094;-68
2021/08/26 04:18:00;;;;;;;15.07;3.80;;;;;;;;;;5034123;28;20044;-68
2021/08/26 04:20:26;;;;;;;14.40;3.45;;;;;;;;;;5020726;28;20075;-68
2021/08/26 04:22:52;;;;;;;19.50;3.70;;;;;;;;;;5029635;28;20159;-68
2021/08/26 04:25:18;;;;;;;11.25;3.30;;;;;;;;;;5038965;28;20034;-68
2021/08/26 04:27:44;;;;;;;14.77;3.70;;;;;;;;;;5032043;28;20079;-69
2021/08/26 04:30:10;;;;;;;15.32;3.17;;;;;;;;;;5019906;28;20040;-68
2021/08/26 04:32:36;;;;;;;20.52;3.97;;;;;;;;;;5015208;28;20386;-68
2021/08/26 04:35:02;;;;;;;15.23;2.60;;;;;;;;;;5040212;28;20400;-68
2021/08/26 04:37:29;;;;;;;13.73;2.50;;;;;;;;;;5020191;28;20049;-68
2021/08/26 04:39:56;;;;;;;9.73;2.05;;;;;;;;;;5032010;28;20207;-68
2021/08/26 04:42:22;;;;;;;11.00;2.13;;;;;;;;;;5040193;28;20049;-68
2021/08/26 04:44:48;;;;;;;17.77;2.80;;;;;;;;;;5015003;28;20041;-68
2021/08/26 04:47:14;;;;;;;14.68;2.97;;;;;;;;;;5035459;28;20124;-68
2021/08/26 04:49:40;;;;;;;13.93;3.00;;;;;;;;;;5023066;28;20272;-68
2021/08/26 04:52:06;;;;;;;18.55;4.40;;;;;;;;;;5041721;28;20037;-68
2021/08/26 04:54:32;;;;;;;16.55;4.65;;;;;;;;;;5033519;28;20037;-68
2021/08/26 04:56:58;;;;;;;15.77;4.47;;;;;;;;;;5042628;28;20099;-68
2021/08/26 04:59:24;;;;;;;12.23;3.15;;;;;;;;;;5030387;28;20033;-68
2021/08/26 05:01:51;;;;;;;15.23;3.22;;;;;;;;;;5037067;28;20547;-68
2021/08/26 05:04:23;;;;;;;14.38;2.83;;;;;;;;;;5031005;28;20120;-68
2021/08/26 05:06:49;;;;;;;12.23;2.47;;;;;;;;;;5040732;28;20049;-68
2021/08/26 05:09:15;;;;;;;14.38;3.00;;;;;;;;;;5014231;28;20055;-68
2021/08/26 05:11:41;;;;;;;14.70;2.88;;;;;;;;;;5040475;28;20123;-68
2021/08/26 05:14:07;;;;;;;13.77;3.00;;;;;;;;;;5037651;28;20080;-68
2021/08/26 05:16:33;;;;;;;13.70;2.25;;;;;;;;;;5040844;28;20555;-68
2021/08/26 05:18:59;;;;;;;12.25;2.30;;;;;;;;;;5040236;28;20520;-68
2021/08/26 05:21:25;;;;;;;13.98;2.60;;;;;;;;;;5012211;28;20056;-68
2021/08/26 05:23:51;;;;;;;12.02;2.58;;;;;;;;;;5025179;28;20121;-68
2021/08/26 05:26:17;;;;;;;17.42;3.25;;;;;;;;;;5014073;28;20038;-68
2021/08/26 05:28:46;;;;;;;17.08;3.25;;;;;;;;;;5017371;28;20046;-68
2021/08/26 05:31:12;;;;;;;12.73;2.80;;;;;;;;;;5017798;28;20050;-69
2021/08/26 05:33:38;;;;;;;16.13;2.60;;;;;;;;;;5026898;28;20056;-68
2021/08/26 05:36:04;;;;;;;14.43;3.08;;;;;;;;;;5014579;28;20103;-68
2021/08/26 05:38:30;;;;;;;11.70;2.60;;;;;;;;;;5019987;28;20098;-68
2021/08/26 05:40:56;;;;;;;17.05;2.67;;;;;;;;;;5013003;28;20504;-69
2021/08/26 05:43:22;;;;;;;13.13;2.83;;;;;;;;;;5023631;28;20042;-68
2021/08/26 05:45:48;;;;;;;12.50;2.80;;;;;;;;;;5020026;28;20124;-69
2021/08/26 05:48:14;;;;;;;11.98;3.08;;;;;;;;;;5018006;28;20104;-68
2021/08/26 05:50:40;;;;;;;17.15;3.50;;;;;;;;;;5018974;28;20357;-69
2021/08/26 05:53:07;;;;;;;16.98;3.50;;;;;;;;;;5021539;28;20117;-69
2021/08/26 05:55:33;;;;;;;16.30;2.80;;;;;;;;;;5026472;28;20107;-69
2021/08/26 05:57:59;;;;;;;19.77;2.97;;;;;;;;;;5006992;28;20045;-68
2021/08/26 06:00:25;;;;;;;17.10;3.90;;;;;;;;;;5018958;28;20041;-69
2021/08/26 06:02:51;;;;;;;13.98;3.35;;;;;;;;;;5011527;28;20137;-68
2021/08/26 06:05:17;;;;;;;15.00;3.15;;;;;;;;;;5029232;28;20037;-68
2021/08/26 06:07:43;;;;;;;17.55;3.38;;;;;;;;;;5009252;28;20777;-68
2021/08/26 06:10:10;;;;;;;18.23;3.60;;;;;;;;;;5005385;28;20049;-69
2021/08/26 06:12:39;;;;;;;17.02;3.72;;;;;;;;;;5017609;28;20470;-68
2021/08/26 06:15:06;;;;;;;15.48;3.33;;;;;;;;;;5021986;28;20548;-68
2021/08/26 06:17:32;;;;;;;17.55;3.70;;;;;;;;;;5014384;28;20045;-68
2021/08/26 06:19:58;;;;;;;13.73;3.30;;;;;;;;;;5020449;28;20033;-68
2021/08/26 06:22:24;;;;;;;20.23;3.70;;;;;;;;;;5011968;28;20060;-69
2021/08/26 06:24:50;;;;;;;17.17;4.38;;;;;;;;;;5019317;28;20405;-69
2021/08/26 06:27:16;;;;;;;16.95;3.75;;;;;;;;;;5016201;28;20258;-68
2021/08/26 06:29:42;;;;;;;18.17;3.35;;;;;;;;;;5021606;28;20397;-68
2021/08/26 06:32:08;;;;;;;15.50;3.90;;;;;;;;;;5011311;28;20342;-69
2021/08/26 06:34:34;;;;;;;15.73;4.47;;;;;;;;;;5020034;28;20088;-68
2021/08/26 06:37:01;;;;;;;23.10;4.68;;;;;;;;;;5020941;28;20029;-68
2021/08/26 06:39:28;;;;;;;13.80;3.95;;;;;;;;;;5012330;28;20068;-68
2021/08/26 06:41:55;;;;;;;16.42;3.95;;;;;;;;;;5020894;28;20461;-70
2021/08/26 06:44:22;;;;;;;18.77;4.07;;;;;;;;;;5009226;28;20116;-71
2021/08/26 06:46:48;;;;;;;18.27;4.05;;;;;;;;;;5022926;28;20038;-70
2021/08/26 06:49:14;;;;;;;15.27;4.07;;;;;;;;;;5008774;28;20131;-71
2021/08/26 06:51:40;;;;;;;17.15;4.20;;;;;;;;;;5018721;28;20049;-70
2021/08/26 06:54:06;;;;;;;17.90;3.88;;;;;;;;;;5013943;28;20049;-70
2021/08/26 06:56:32;;;;;;;17.52;4.45;;;;;;;;;;5022285;28;20065;-70
2021/08/26 06:58:58;;;;;;;12.80;3.63;;;;;;;;;;5015716;28;20048;-70
2021/08/26 07:01:24;;;;;;;16.50;4.75;;;;;;;;;;5017849;28;20513;-69
2021/08/26 07:03:51;;;;;;;15.43;3.75;;;;;;;;;;5011842;28;20497;-69
2021/08/26 07:06:17;;;;;;;17.48;4.88;;;;;;;;;;5022017;28;20069;-69
2021/08/26 07:08:43;;;;;;;18.25;4.50;;;;;;;;;;5026656;28;20053;-70
2021/08/26 07:11:10;;;;;;;21.23;4.97;;;;;;;;;;5018229;28;20053;-71
2021/08/26 07:13:36;;;;;;;17.05;4.05;;;;;;;;;;5022802;28;20125;-70
2021/08/26 07:16:02;;;;;;;12.40;3.38;;;;;;;;;;5018302;28;20045;-70
2021/08/26 07:18:28;;;;;;;17.90;4.82;;;;;;;;;;5019115;28;20046;-70
2021/08/26 07:20:55;;;;;;;20.77;3.90;;;;;;;;;;5015925;28;20148;-70
2021/08/26 07:23:21;;;;;;;19.02;4.10;;;;;;;;;;5022509;28;20072;-70
2021/08/26 07:25:47;;;;;;;18.17;3.67;;;;;;;;;;5017881;28;20137;-70
2021/08/26 07:28:14;;;;;;;22.35;4.43;;;;;;;;;;5016244;28;20053;-71
2021/08/26 07:30:40;;;;;;;17.00;4.10;;;;;;;;;;5012223;28;20113;-71
2021/08/26 07:33:06;;;;;;;23.13;4.57;;;;;;;;;;5019838;28;20056;-70
2021/08/26 07:35:32;;;;;;;21.10;4.85;;;;;;;;;;5013326;28;20090;-70
2021/08/26 07:37:58;;;;;;;24.25;4.85;;;;;;;;;;5012563;28;20418;-70
2021/08/26 07:40:25;;;;;;;19.98;4.70;;;;;;;;;;5016016;28;20098;-70
2021/08/26 07:42:51;;;;;;;24.80;5.32;;;;;;;;;;5022635;28;20034;-70
2021/08/26 07:45:17;;;;;;;21.67;5.28;;;;;;;;;;5012218;28;20055;-70
2021/08/26 07:47:43;;;;;;;23.58;5.15;;;;;;;;;;5039435;28;20504;-71
2021/08/26 07:50:10;;;;;;;17.27;4.32;;;;;;;;;;5014677;28;20123;-71
2021/08/26 07:52:36;;;;;;;20.98;5.20;;;;;;;;;;5014974;28;20057;-70
2021/08/26 07:55:03;;;;;;;22.27;5.10;;;;;;;;;;5017261;28;20470;-70
2021/08/26 07:57:29;;;;;;;22.67;5.38;;;;;;;;;;5011236;28;20045;-70
2021/08/26 07:59:55;;;;;;;16.85;4.95;;;;;;;;;;5016970;28;20053;-70
2021/08/26 08:02:21;;;;;;;23.67;5.13;;;;;;;;;;5010949;28;20056;-70
2021/08/26 08:04:47;;;;;;;23.55;4.78;;;;;;;;;;5020239;28;20490;-70
2021/08/26 08:07:13;;;;;;;20.95;4.82;;;;;;;;;;5001700;28;20044;-70
2021/08/26 08:09:40;;;;;;;20.38;4.38;;;;;;;;;;5014439;28;20139;-70
2021/08/26 08:12:06;;;;;;;20.77;5.20;;;;;;;;;;5008422;28;20125;-71
2021/08/26 08:14:32;;;;;;;21.58;4.97;;;;;;;;;;5022679;28;20040;-72
2021/08/26 08:16:58;;;;;;;18.45;4.72;;;;;;;;;;5008864;28;20065;-71
2021/08/26 08:19:25;;;;;;;20.90;4.70;;;;;;;;;;5013407;28;20132;-71
2021/08/26 08:21:51;;;;;;;24.65;5.65;;;;;;;;;;5009847;28;20160;-70
2021/08/26 08:24:17;;;;;;;18.35;5.05;;;;;;;;;;5021740;28;20045;-70
2021/08/26 08:26:44;;;;;;;20.10;4.80;;;;;;;;;;5013567;28;20046;-71
2021/08/26 08:29:10;;;;;;;24.90;5.28;;;;;;;;;;5018530;28;20050;-70
2021/08/26 08:31:36;;;;;;;20.55;5.38;;;;;;;;;;5014368;28;20053;-71
2021/08/26 08:34:02;;;;;;;21.95;5.03;;;;;;;;;;5018137;28;20128;-71
2021/08/26 08:36:28;;;;;;;21.40;4.82;;;;;;;;;;5016002;28;20072;-69
2021/08/26 08:38:54;;;;;;;20.92;5.22;;;;;;;;;;5024647;28;20122;-70
2021/08/26 08:41:21;;;;;;;25.17;5.07;;;;;;;;;;5031918;28;20038;-70
2021/08/26 08:43:48;;;;;;;17.63;4.82;;;;;;;;;;5014884;28;20092;-70
2021/08/26 08:46:15;;;;;;;18.50;4.63;;;;;;;;;;5015835;28;20493;-70
2021/08/26 08:48:43;;;;;;;19.52;4.90;;;;;;;;;;5007455;28;20045;-70
2021/08/26 08:51:09;;;;;;;19.85;4.65;;;;;;;;;;5033617;28;20095;-70
2021/08/26 08:53:36;;;;;;;21.33;4.90;;;;;;;;;;5008743;28;20053;-70
2021/08/26 08:56:07;;;;;;;19.35;4.97;;;;;;;;;;5020718;28;20046;-69
2021/08/26 08:58:37;;;;;;;20.08;5.03;;;;;;;;;;4997436;28;20080;-70
2021/08/26 09:01:04;;;;;;;22.98;5.82;;;;;;;;;;5001085;28;20481;-68
2021/08/26 09:03:30;;;;;;;19.20;4.63;;;;;;;;;;5015149;28;20103;-69
2021/08/26 09:05:57;;;;;;;19.25;4.70;;;;;;;;;;5020596;28;20049;-69
2021/08/26 09:08:24;;;;;;;22.20;5.05;;;;;;;;;;5011864;28;20100;-69
2021/08/26 09:10:54;;;;;;;21.63;5.00;;;;;;;;;;5017000;28;20111;-70
2021/08/26 09:13:31;;;;;;;21.15;4.05;;;;;;;;;;5018714;28;20029;-69
2021/08/26 09:15:58;;;;;;;22.27;4.57;;;;;;;;;;5015042;28;20135;-69
2021/08/26 09:18:24;;;;;;;15.68;3.83;;;;;;;;;;5017074;28;20533;-68
2021/08/26 09:20:55;;;;;;;17.40;4.22;;;;;;;;;;5018490;28;20048;-69
2021/08/26 09:23:22;;;;;;;18.27;4.25;;;;;;;;;;5023904;28;20378;-69
2021/08/26 09:25:49;;;;;;;16.70;4.03;;;;;;;;;;5016751;28;20047;-67
2021/08/26 09:28:27;;;;;;;15.60;4.40;;;;;;;;;;5039350;28;20045;-67
2021/08/26 09:31:10;;;;;;;16.63;4.20;;;;;;;;;;5033504;28;20049;-67
2021/08/26 09:33:46;;;;;;;16.60;4.00;;;;;;;;;;5034955;28;20049;-67
2021/08/26 09:36:17;;;;;;;16.55;4.75;;;;;;;;;;5030326;28;20363;-68
2021/08/26 09:38:43;;;;;;;19.17;4.28;;;;;;;;;;5037561;28;20140;-67
2021/08/26 09:41:09;;;;;;;16.80;4.63;;;;;;;;;;5031831;28;20048;-67
2021/08/26 09:43:35;;;;;;;16.58;3.92;;;;;;;;;;5032728;28;20037;-67
2021/08/26 09:46:01;;;;;;;18.60;4.63;;;;;;;;;;5030382;28;20040;-68
2021/08/26 09:48:27;;;;;;;13.05;3.50;;;;;;;;;;5038672;28;20037;-69
2021/08/26 09:50:54;;;;;;;13.45;3.55;;;;;;;;;;5016567;28;20139;-68
2021/08/26 09:53:22;;;;;;;17.15;4.38;;;;;;;;;;5035795;28;20075;-69
2021/08/26 09:55:50;;;;;;;15.65;3.78;;;;;;;;;;5033510;28;20052;-70
2021/08/26 09:58:17;;;;;;;18.83;4.35;;;;;;;;;;5023635;28;20202;-68
2021/08/26 10:00:43;;;;;;;16.88;3.85;;;;;;;;;;5040066;28;20037;-68
2021/08/26 10:03:14;;;;;;;15.35;4.03;;;;;;;;;;5042971;28;20044;-67
2021/08/26 10:05:44;;;;;;;12.88;3.50;;;;;;;;;;5021652;28;20497;-68
2021/08/26 10:08:10;;;;;;;14.50;3.85;;;;;;;;;;5039809;28;20120;-68
2021/08/26 10:10:39;;;;;;;13.23;3.65;;;;;;;;;;5037927;28;20049;-68
2021/08/26 10:13:05;;;;;;;10.95;3.60;;;;;;;;;;5025902;28;20094;-67
2021/08/26 10:15:32;;;;;;;14.15;3.10;;;;;;;;;;5041581;28;20049;-67
2021/08/26 10:17:59;;;;;;;13.07;3.78;;;;;;;;;;5032246;28;20056;-67
2021/08/26 10:20:26;;;;;;;14.77;3.40;;;;;;;;;;5024251;28;20049;-68
2021/08/26 10:22:52;;;;;;;17.05;3.90;;;;;;;;;;5023081;28;20037;-68
2021/08/26 10:25:18;;;;;;;13.10;3.60;;;;;;;;;;5017929;28;20180;-67
2021/08/26 10:27:45;;;;;;;14.50;3.53;;;;;;;;;;5044294;28;20126;-68
2021/08/26 10:30:29;;;;;;;11.18;3.75;;;;;;;;;;5040181;28;20151;-68
2021/08/26 10:33:09;;;;;;;13.02;4.35;;;;;;;;;;5041597;28;20064;-68
2021/08/26 10:35:58;;;;;;;11.88;3.10;;;;;;;;;;5045195;28;20093;-68
2021/08/26 10:38:28;;;;;;;15.02;3.45;;;;;;;;;;5016925;28;20049;-68
2021/08/26 10:40:54;;;;;;;14.85;3.40;;;;;;;;;;5043290;28;20037;-68
2021/08/26 10:43:34;;;;;;;16.38;4.18;;;;;;;;;;5037972;28;20431;-68
2021/08/26 10:46:01;;;;;;;13.90;3.42;;;;;;;;;;5038004;28;20100;-68
2021/08/26 10:48:28;;;;;;;12.40;3.47;;;;;;;;;;5032269;28;20179;-69
2021/08/26 10:51:09;;;;;;;16.17;3.67;;;;;;;;;;5029008;28;20072;-68
2021/08/26 10:53:40;;;;;;;11.38;2.75;;;;;;;;;;5036495;28;20037;-68
2021/08/26 10:56:21;;;;;;;10.85;3.33;;;;;;;;;;5041204;28;20049;-69
2021/08/26 10:58:49;;;;;;;15.00;3.10;;;;;;;;;;5037740;28;20036;-69
2021/08/26 11:01:31;;;;;;;13.77;3.42;;;;;;;;;;5020899;28;20498;-68
2021/08/26 11:04:21;;;;;;;10.60;4.65;;;;;;;;;;5027525;28;20037;-68
2021/08/26 11:06:48;;;;;;;13.63;3.15;;;;;;;;;;5028104;28;20041;-68
2021/08/26 11:09:14;;;;;;;14.32;3.55;;;;;;;;;;5015833;28;20400;-68
2021/08/26 11:11:45;;;;;;;13.48;3.65;;;;;;;;;;5020200;28;20229;-69
2021/08/26 11:14:20;;;;;;;15.63;3.45;;;;;;;;;;5017749;28;20427;-69
2021/08/26 11:16:50;;;;;;;9.25;2.70;;;;;;;;;;5020470;28;20029;-69
2021/08/26 11:19:17;;;;;;;12.00;3.35;;;;;;;;;;5017129;28;20056;-69
2021/08/26 11:24:09;;;;;;;11.82;3.00;;;;;;;;;;5027423;28;20128;-68
2021/08/26 11:26:44;;;;;;;12.57;3.60;;;;;;;;;;5033435;28;20163;-69
2021/08/26 11:29:22;;;;;;;13.48;3.10;;;;;;;;;;5020308;28;20041;-68
2021/08/26 11:31:55;;;;;;;14.27;3.55;;;;;;;;;;5023090;28;20118;-69
2021/08/26 11:34:32;;;;;;;13.13;3.25;;;;;;;;;;5018493;28;20044;-69
2021/08/26 11:37:17;;;;;;;12.48;3.70;;;;;;;;;;5032237;28;20065;-69
2021/08/26 11:39:43;;;;;;;12.10;3.60;;;;;;;;;;5039197;28;20064;-69
2021/08/26 11:42:11;;;;;;;11.10;3.10;;;;;;;;;;5038919;28;20041;-69
2021/08/26 11:44:37;;;;;;;10.18;2.50;;;;;;;;;;5033816;28;20149;-70
2021/08/26 11:47:04;;;;;;;12.63;3.08;;;;;;;;;;5040957;28;20140;-70
2021/08/26 11:49:33;;;;;;;10.05;2.85;;;;;;;;;;5035816;28;20438;-69
2021/08/26 11:52:13;;;;;;;9.77;3.05;;;;;;;;;;5027730;28;20041;-70
2021/08/26 11:54:47;;;;;;;11.52;3.10;;;;;;;;;;5020744;28;20106;-71
2021/08/26 11:57:14;;;;;;;11.73;3.30;;;;;;;;;;5040727;28;20039;-70
2021/08/26 11:59:41;;;;;;;15.07;4.28;;;;;;;;;;5017380;28;20033;-69
2021/08/26 12:02:14;;;;;;;14.60;4.00;;;;;;;;;;5038179;28;20120;-69
2021/08/26 12:04:41;;;;;;;14.82;4.07;;;;;;;;;;5036952;28;20076;-69
2021/08/26 12:07:07;;;;;;;15.82;3.92;;;;;;;;;;5037443;28;20570;-70
2021/08/26 12:09:33;;;;;;;15.23;3.53;;;;;;;;;;5039153;28;20102;-70
2021/08/26 12:12:10;;;;;;;11.65;3.75;;;;;;;;;;5032929;28;20124;-69
2021/08/26 12:14:36;;;;;;;17.23;4.57;;;;;;;;;;5039436;28;20033;-69
2021/08/26 12:17:15;;;;;;;16.30;3.75;;;;;;;;;;5035513;28;20040;-68
2021/08/26 12:19:42;;;;;;;15.27;4.28;;;;;;;;;;5037950;28;20049;-68
2021/08/26 12:22:09;;;;;;;15.00;3.55;;;;;;;;;;5034212;28;20049;-68
2021/08/26 12:24:35;;;;;;;15.88;4.10;;;;;;;;;;5039362;28;20076;-68
2021/08/26 12:27:11;;;;;;;19.90;3.85;;;;;;;;;;5034477;28;20477;-68
2021/08/26 12:29:44;;;;;;;15.25;3.90;;;;;;;;;;5037591;28;20043;-68
2021/08/26 12:32:31;;;;;;;11.50;3.87;;;;;;;;;;5017773;28;20505;-68
2021/08/26 12:35:12;;;;;;;13.27;3.63;;;;;;;;;;5036095;28;20276;-68
2021/08/26 12:37:48;;;;;;;13.93;2.60;;;;;;;;;;5029417;28;20061;-68
2021/08/26 12:40:14;;;;;;;6.53;1.77;;;;;;;;;;5025677;28;20098;-70
2021/08/26 12:42:41;;;;;;;6.07;1.13;;;;;;;;;;5011153;28;20041;-70
2021/08/26 12:45:19;;;;;;;5.45;1.35;;;;;;;;;;5032315;28;20061;-71
2021/08/26 12:47:45;;;;;;;4.93;0.82;;;;;;;;;;5019029;28;20045;-71
2021/08/26 12:50:11;;;;;;;4.28;0.60;;;;;;;;;;5022756;28;20088;-71
2021/08/26 12:52:39;;;;;;;3.50;0.57;;;;;;;;;;5012218;28;20482;-70
2021/08/26 12:55:09;;;;;;;5.05;0.80;;;;;;;;;;5026886;28;20052;-71
2021/08/26 12:57:35;;;;;;;4.53;0.50;;;;;;;;;;5011733;28;20045;-70
2021/08/26 13:00:02;;;;;;;2.45;0.22;;;;;;;;;;5039442;28;20041;-70
2021/08/26 13:02:28;;;;;;;5.10;0.57;;;;;;;;;;5013524;28;20052;-69
2021/08/26 13:05:03;;;;;;;3.08;0.75;;;;;;;;;;5024536;28;20056;-70
2021/08/26 13:07:29;;;;;;;5.32;0.50;;;;;;;;;;5013972;28;20045;-69
2021/08/26 13:10:03;;;;;;;4.10;0.60;;;;;;;;;;5021108;28;20338;-68
2021/08/26 13:12:30;;;;;;;;;;;;;;;;;;5020478;28;20057;-68
2021/08/26 13:14:56;;;;;;;5.20;0.40;;;;;;;;;;5037705;28;19932;-70
2021/08/26 13:17:24;;;;;;;5.38;0.50;;;;;;;;;;5038291;28;20033;-70
2021/08/26 13:19:55;;;;;;;7.00;0.50;;;;;;;;;;5015881;28;20081;-70
2021/08/26 13:22:28;;;;;;;4.53;0.60;;;;;;;;;;5021761;28;20052;-71
2021/08/26 13:24:55;;;;;;;4.03;0.63;;;;;;;;;;5031125;28;20042;-71
2021/08/26 13:27:22;;;;;;;5.20;0.75;;;;;;;;;;5022705;28;20042;-71
2021/08/26 13:29:49;;;;;;;6.40;1.02;;;;;;;;;;5014479;28;20037;-71
2021/08/26 13:32:16;;;;;;;3.70;0.50;;;;;;;;;;5025001;28;20132;-68
2021/08/26 13:34:42;;;;;;;6.13;0.68;;;;;;;;;;5036889;28;20048;-69
2021/08/26 13:37:09;;;;;;;4.65;0.50;;;;;;;;;;5028228;28;20060;-69
2021/08/26 13:39:35;;;;;;;6.15;0.47;;;;;;;;;;5016400;28;20548;-68
2021/08/26 13:42:01;;;;;;;4.35;0.40;;;;;;;;;;5025571;28;20060;-69
2021/08/26 13:44:27;;;;;;;5.28;0.80;;;;;;;;;;5035486;28;20094;-69
2021/08/26 13:46:53;;;;;;;5.15;0.65;;;;;;;;;;5025234;28;20095;-69
2021/08/26 13:49:20;;;;;;;3.30;0.40;;;;;;;;;;5017497;28;20389;-70
2021/08/26 13:51:46;;;;;;;3.72;0.30;;;;;;;;;;5026061;28;20084;-71
2021/08/26 13:54:13;;;;;;;5.28;0.73;;;;;;;;;;5017072;28;20052;-70
2021/08/26 13:56:39;;;;;;;3.47;0.40;;;;;;;;;;5026577;28;20056;-69
2021/08/26 13:59:05;;;;;;;2.30;0.30;;;;;;;;;;5022890;28;20053;-67
2021/08/26 14:01:32;;;;;;;2.17;0.40;;;;;;;;;;5041069;28;20052;-68
2021/08/26 14:03:58;;;;;;;4.93;0.30;;;;;;;;;;5044518;28;20029;-68
2021/08/26 14:06:24;;;;;;;2.78;0.40;;;;;;;;;;5040331;28;20456;-68
2021/08/26 14:08:50;;;;;;;3.42;0.40;;;;;;;;;;5044821;28;20524;-68
2021/08/26 14:11:16;;;;;;;5.18;0.52;;;;;;;;;;5037286;28;20041;-70
2021/08/26 14:13:42;;;;;;;3.47;0.60;;;;;;;;;;5028496;28;20547;-69
2021/08/26 14:16:10;;;;;;;2.60;0.30;;;;;;;;;;5040496;28;20071;-69
2021/08/26 14:18:36;;;;;;;5.35;0.75;;;;;;;;;;5025555;28;20049;-69
2021/08/26 14:21:02;;;;;;;5.32;1.27;;;;;;;;;;5037403;28;20061;-69
2021/08/26 14:23:29;;;;;;;3.47;0.55;;;;;;;;;;5019617;28;20048;-69
2021/08/26 14:25:55;;;;;;;2.47;0.85;;;;;;;;;;5017958;28;20057;-70
2021/08/26 14:28:21;;;;;;;6.45;0.98;;;;;;;;;;5044172;28;20123;-71
2021/08/26 14:30:47;;;;;;;5.03;0.70;;;;;;;;;;5014277;28;21135;-69
2021/08/26 14:33:13;;;;;;;5.35;0.32;;;;;;;;;;5042572;28;20592;-69
2021/08/26 14:35:40;;;;;;;4.75;0.73;;;;;;;;;;5036034;28;20081;-69
2021/08/26 14:38:06;;;;;;;2.78;0.50;;;;;;;;;;5022433;28;20049;-68
2021/08/26 14:40:32;;;;;;;3.53;0.50;;;;;;;;;;5043142;28;20170;-69
2021/08/26 14:42:59;;;;;;;4.68;0.88;;;;;;;;;;5014511;28;20138;-71
2021/08/26 14:45:25;;;;;;;5.28;0.60;;;;;;;;;;5024215;28;20064;-70